Time;durP1;ratioP1;P1;durP2;ratioP2;P2;SDS_P1;SDS_P2;PMS_P1;PMS_P2;Temp;Humidity;BMP_temperature;BMP_pressure;BME280_temperature;BME280_humidity;BME280_pressure;Samples;Min_cycle;Max_cycle;Signal;HPM_P1;HPM_P2
2021/12/06 00:00:55;;;;;;;;;;;3.60;99.90;;;;;;5033653;28;19944;-87
2021/12/06 00:03:28;;;;;;;;;;;3.60;99.90;;;;;;5034759;28;19925;-85
2021/12/06 00:05:55;;;;;;;;;;;3.60;99.90;;;;;;5046176;28;19997;-86
2021/12/06 00:08:22;;;;;;;;;;;3.60;99.90;;;;;;5037464;28;19947;-85
2021/12/06 00:10:50;;;;;;;;;;;3.60;99.90;;;;;;5049205;28;20012;-86
2021/12/06 00:13:20;;;;;;;;;;;3.60;99.90;;;;;;5027648;28;20304;-85
2021/12/06 00:15:49;;;;;;;;;;;3.50;99.90;;;;;;5034234;28;20413;-86
2021/12/06 00:18:16;;;;;;;;;;;3.60;99.90;;;;;;5035620;28;19975;-85
2021/12/06 00:20:45;;;;;;;;;;;3.50;99.90;;;;;;5053012;28;19947;-86
2021/12/06 00:23:12;;;;;;;;;;;3.50;99.90;;;;;;5042068;28;19924;-86
2021/12/06 00:25:39;;;;;;;;;;;3.50;99.90;;;;;;5027486;28;20426;-87
2021/12/06 00:28:06;;;;;;;;;;;3.50;99.90;;;;;;5032768;28;20306;-87
2021/12/06 00:30:33;;;;;;;;;;;3.50;99.90;;;;;;5037031;28;19940;-87
2021/12/06 00:33:00;;;;;;;;;;;3.60;99.90;;;;;;5034619;28;20028;-86
2021/12/06 00:35:29;;;;;;;;;;;3.50;99.90;;;;;;5033238;28;19940;-86
2021/12/06 00:38:00;;;;;;;;;;;3.50;99.90;;;;;;5028707;28;19928;-86
2021/12/06 00:40:29;;;;;;;;;;;3.50;99.90;;;;;;5031797;28;19925;-85
2021/12/06 00:42:56;;;;;;;;;;;3.50;99.90;;;;;;5031151;28;19924;-86
2021/12/06 00:45:24;;;;;;;;;;;3.50;99.90;;;;;;5034199;28;19936;-86
2021/12/06 00:47:51;;;;;;;;;;;3.50;99.90;;;;;;5030686;28;19948;-85
2021/12/06 00:50:19;;;;;;;;;;;3.50;99.90;;;;;;5028746;28;19925;-86
2021/12/06 00:52:46;;;;;;;;;;;3.50;99.90;;;;;;5030161;28;21618;-88
2021/12/06 00:55:15;;;;;;;;;;;3.40;99.90;;;;;;5030815;28;19929;-87
2021/12/06 00:57:42;;;;;;;;;;;3.40;99.90;;;;;;5050425;28;20004;-86
2021/12/06 01:00:11;;;;;;;;;;;3.40;99.90;;;;;;5033626;28;20466;-86
2021/12/06 01:02:38;;;;;;;;;;;3.40;99.90;;;;;;5033474;28;20372;-86
2021/12/06 01:05:06;;;;;;;;;;;3.40;99.90;;;;;;5029175;28;20434;-86
2021/12/06 01:07:33;;;;;;;;;;;3.40;99.90;;;;;;5033426;28;19929;-86
2021/12/06 01:10:00;;;;;;;;;;;3.40;99.90;;;;;;5050362;28;19928;-87
2021/12/06 01:12:28;;;;;;;;;;;3.40;99.90;;;;;;5048226;28;19976;-86
2021/12/06 01:14:55;;;;;;;;;;;3.40;99.90;;;;;;5034490;28;19929;-86
2021/12/06 01:17:22;;;;;;;;;;;3.40;99.90;;;;;;5048829;28;19952;-87
2021/12/06 01:19:51;;;;;;;;;;;3.40;99.90;;;;;;5042338;28;20433;-86
2021/12/06 01:22:25;;;;;;;;;;;3.40;99.90;;;;;;5027345;28;19925;-85
2021/12/06 01:24:57;;;;;;;;;;;3.30;99.90;;;;;;5051655;28;19955;-85
2021/12/06 01:41:15;;;;;;;;;;;3.30;99.90;;;;;;5019323;28;19921;-86
2021/12/06 01:43:56;;;;;;;;;;;3.30;99.90;;;;;;5034870;28;19924;-86
2021/12/06 01:46:25;;;;;;;;;;;3.30;99.90;;;;;;5021712;28;20123;-86
2021/12/06 01:48:52;;;;;;;;;;;3.30;99.90;;;;;;5032474;28;19986;-85
2021/12/06 01:51:19;;;;;;;;;;;3.30;99.90;;;;;;5028814;28;19994;-87
2021/12/06 01:53:46;;;;;;;;;;;3.30;99.90;;;;;;5031328;28;19939;-86
2021/12/06 01:56:13;;;;;;;;;;;3.30;99.90;;;;;;5031387;28;19925;-86
2021/12/06 01:58:43;;;;;;;;;;;3.30;99.90;;;;;;5032195;28;19935;-85
2021/12/06 02:01:11;;;;;;;;;;;3.30;99.90;;;;;;5032036;28;19925;-85
2021/12/06 02:03:40;;;;;;;;;;;3.30;99.90;;;;;;5027381;28;20337;-87
2021/12/06 02:06:08;;;;;;;;;;;3.30;99.90;;;;;;5030197;28;20032;-86
2021/12/06 02:08:36;;;;;;;;;;;3.30;99.90;;;;;;5033595;28;19956;-86
2021/12/06 02:11:04;;;;;;;;;;;3.30;99.90;;;;;;5035755;28;19949;-86
2021/12/06 02:13:43;;;;;;;;;;;3.30;99.90;;;;;;5039155;28;20661;-86
2021/12/06 02:16:10;;;;;;;;;;;3.30;99.90;;;;;;5049321;28;19933;-85
2021/12/06 02:18:45;;;;;;;;;;;3.20;99.90;;;;;;5038473;28;19937;-86
2021/12/06 02:23:41;;;;;;;;;;;3.20;99.90;;;;;;5043146;28;19974;-81
2021/12/06 02:26:10;;;;;;;;;;;3.20;99.90;;;;;;5032558;28;20374;-81
2021/12/06 02:28:36;;;;;;;;;;;3.20;99.90;;;;;;5032099;28;19925;-81
2021/12/06 02:31:04;;;;;;;;;;;3.20;99.90;;;;;;5047211;28;19947;-81
2021/12/06 02:33:31;;;;;;;;;;;3.20;99.90;;;;;;5051023;28;19964;-81
2021/12/06 02:35:58;;;;;;;;;;;3.20;99.90;;;;;;5031039;28;19933;-81
2021/12/06 02:38:25;;;;;;;;;;;3.20;99.90;;;;;;5048403;28;19933;-82
2021/12/06 02:40:53;;;;;;;;;;;3.20;99.90;;;;;;5047780;28;19964;-81
2021/12/06 02:43:20;;;;;;;;;;;3.20;99.90;;;;;;5032798;28;19932;-81
2021/12/06 02:45:48;;;;;;;;;;;3.20;99.90;;;;;;5048407;28;19932;-81
2021/12/06 02:48:15;;;;;;;;;;;3.20;99.90;;;;;;5047964;28;19952;-81
2021/12/06 02:50:44;;;;;;;;;;;3.20;99.90;;;;;;5033344;28;19936;-81
2021/12/06 02:53:11;;;;;;;;;;;3.10;99.90;;;;;;5031443;28;19925;-81
2021/12/06 02:55:39;;;;;;;;;;;3.20;99.90;;;;;;5048972;28;19999;-81
2021/12/06 02:58:18;;;;;;;;;;;3.20;99.90;;;;;;5033543;28;20280;-81
2021/12/06 03:00:47;;;;;;;;;;;3.20;99.90;;;;;;5031285;28;19925;-81
2021/12/06 03:03:16;;;;;;;;;;;3.10;99.90;;;;;;5030069;28;20463;-81
2021/12/06 03:05:44;;;;;;;;;;;3.10;99.90;;;;;;5049974;28;19925;-81
2021/12/06 03:08:11;;;;;;;;;;;3.10;99.90;;;;;;5032757;28;20394;-79
2021/12/06 03:10:38;;;;;;;;;;;3.10;99.90;;;;;;5022586;28;19925;-81
2021/12/06 03:13:05;;;;;;;;;;;3.10;99.90;;;;;;5046847;28;19995;-81
2021/12/06 03:15:34;;;;;;;;;;;3.10;99.90;;;;;;5049963;28;19925;-80
2021/12/06 03:18:01;;;;;;;;;;;3.10;99.90;;;;;;5027362;28;19931;-81
2021/12/06 03:20:28;;;;;;;;;;;3.10;99.90;;;;;;5024135;28;19932;-81
2021/12/06 03:22:55;;;;;;;;;;;3.10;99.90;;;;;;5030778;28;20160;-81
2021/12/06 03:25:22;;;;;;;;;;;3.10;99.90;;;;;;5030496;28;19925;-81
2021/12/06 03:27:49;;;;;;;;;;;3.10;99.90;;;;;;5029060;28;19939;-81
2021/12/06 03:30:17;;;;;;;;;;;3.10;99.90;;;;;;5027734;28;19986;-80
2021/12/06 03:32:46;;;;;;;;;;;3.10;99.90;;;;;;5032305;28;20020;-81
2021/12/06 03:35:13;;;;;;;;;;;3.00;99.90;;;;;;5030901;28;20326;-81
2021/12/06 03:37:41;;;;;;;;;;;3.10;99.90;;;;;;5031374;28;20023;-81
2021/12/06 03:40:10;;;;;;;;;;;3.00;99.90;;;;;;5031356;28;20012;-81
2021/12/06 03:42:38;;;;;;;;;;;3.00;99.90;;;;;;5032953;28;19964;-81
2021/12/06 03:45:06;;;;;;;;;;;3.00;99.90;;;;;;5047827;28;19975;-81
2021/12/06 03:47:33;;;;;;;;;;;3.00;99.90;;;;;;5028329;28;20326;-81
2021/12/06 03:50:04;;;;;;;;;;;3.00;99.90;;;;;;5028517;28;20301;-81
2021/12/06 03:52:31;;;;;;;;;;;3.00;99.90;;;;;;5031173;28;19925;-80
2021/12/06 03:55:00;;;;;;;;;;;3.00;99.90;;;;;;5051167;28;20020;-81
2021/12/06 03:57:27;;;;;;;;;;;3.00;99.90;;;;;;5029494;28;20394;-81
2021/12/06 03:59:54;;;;;;;;;;;3.00;99.90;;;;;;5031547;28;19931;-81
2021/12/06 04:02:25;;;;;;;;;;;3.00;99.90;;;;;;5029593;28;19925;-81
2021/12/06 04:04:53;;;;;;;;;;;3.00;99.90;;;;;;5030627;28;19932;-81
2021/12/06 04:07:21;;;;;;;;;;;3.00;99.90;;;;;;5031812;28;19933;-81
2021/12/06 04:09:49;;;;;;;;;;;3.00;99.90;;;;;;5029158;28;19955;-81
2021/12/06 04:12:16;;;;;;;;;;;3.00;99.90;;;;;;5031847;28;19935;-81
2021/12/06 04:14:44;;;;;;;;;;;3.00;99.90;;;;;;5046338;28;20019;-81
2021/12/06 04:17:12;;;;;;;;;;;3.00;99.90;;;;;;5032793;28;19971;-81
2021/12/06 04:19:40;;;;;;;;;;;3.00;99.90;;;;;;5029725;28;19925;-81
2021/12/06 04:22:08;;;;;;;;;;;3.00;99.90;;;;;;5029773;28;20015;-81
2021/12/06 04:24:37;;;;;;;;;;;2.90;99.90;;;;;;5046358;28;19955;-80
2021/12/06 04:27:13;;;;;;;;;;;3.00;99.90;;;;;;5026835;28;19956;-81
2021/12/06 04:29:41;;;;;;;;;;;2.90;99.90;;;;;;5029052;28;20023;-81
2021/12/06 04:32:09;;;;;;;;;;;2.90;99.90;;;;;;5032796;28;19925;-81
2021/12/06 04:34:36;;;;;;;;;;;2.90;99.90;;;;;;5030426;28;19929;-81
2021/12/06 04:37:04;;;;;;;;;;;2.90;99.90;;;;;;5029369;28;20020;-81
2021/12/06 04:39:31;;;;;;;;;;;2.90;99.90;;;;;;5027735;28;19966;-81
2021/12/06 04:42:01;;;;;;;;;;;2.90;99.90;;;;;;5024271;28;19932;-80
2021/12/06 04:44:28;;;;;;;;;;;2.90;99.90;;;;;;5047888;28;20395;-81
2021/12/06 04:46:55;;;;;;;;;;;2.90;99.90;;;;;;5032515;28;19967;-81
2021/12/06 04:49:25;;;;;;;;;;;2.90;99.90;;;;;;5027849;28;19929;-81
2021/12/06 04:51:54;;;;;;;;;;;2.90;99.90;;;;;;5046531;28;19925;-81
2021/12/06 04:54:24;;;;;;;;;;;2.90;99.90;;;;;;5029611;28;19932;-81
2021/12/06 04:56:54;;;;;;;;;;;2.90;99.90;;;;;;5029009;28;19925;-81
2021/12/06 04:59:26;;;;;;;;;;;2.90;99.90;;;;;;5028253;28;19925;-81
2021/12/06 05:01:55;;;;;;;;;;;2.90;99.90;;;;;;5028187;28;20023;-81
2021/12/06 05:04:25;;;;;;;;;;;2.90;99.90;;;;;;5031830;28;19925;-81
2021/12/06 05:06:53;;;;;;;;;;;2.90;99.90;;;;;;5028528;28;19925;-81
2021/12/06 05:09:22;;;;;;;;;;;2.90;99.90;;;;;;5028240;28;19928;-80
2021/12/06 05:11:49;;;;;;;;;;;2.90;99.90;;;;;;5028569;28;20012;-81
2021/12/06 05:14:16;;;;;;;;;;;2.90;99.90;;;;;;5034008;28;20469;-81
2021/12/06 05:16:45;;;;;;;;;;;2.90;99.90;;;;;;5033984;28;20298;-81
2021/12/06 05:19:13;;;;;;;;;;;2.90;99.90;;;;;;5028909;28;19925;-82
2021/12/06 05:21:41;;;;;;;;;;;2.90;99.90;;;;;;5028012;28;19960;-80
2021/12/06 05:24:08;;;;;;;;;;;2.90;99.90;;;;;;5050390;28;19986;-80
2021/12/06 05:26:36;;;;;;;;;;;2.90;99.90;;;;;;5046263;28;19929;-81
2021/12/06 05:29:05;;;;;;;;;;;2.90;99.90;;;;;;5031057;28;20391;-81
2021/12/06 05:31:38;;;;;;;;;;;2.80;99.90;;;;;;5041672;28;20471;-81
2021/12/06 05:34:12;;;;;;;;;;;2.90;99.90;;;;;;5030763;28;20307;-81
2021/12/06 05:36:39;;;;;;;;;;;2.90;99.90;;;;;;5045456;28;19932;-85
2021/12/06 05:39:07;;;;;;;;;;;2.80;99.90;;;;;;5046472;28;19944;-81
2021/12/06 05:41:34;;;;;;;;;;;2.80;99.90;;;;;;5033570;28;19963;-81
2021/12/06 05:44:01;;;;;;;;;;;2.80;99.90;;;;;;5051992;28;19925;-81
2021/12/06 05:46:28;;;;;;;;;;;2.80;99.90;;;;;;5054662;28;19929;-81
2021/12/06 05:48:55;;;;;;;;;;;2.90;99.90;;;;;;5048436;28;19925;-82
2021/12/06 05:51:23;;;;;;;;;;;2.80;99.90;;;;;;5049511;28;20019;-81
2021/12/06 05:53:50;;;;;;;;;;;2.80;99.90;;;;;;5032898;28;19924;-81
2021/12/06 05:56:17;;;;;;;;;;;2.80;99.90;;;;;;5054806;28;19936;-81
2021/12/06 05:58:44;;;;;;;;;;;2.80;99.90;;;;;;5032122;28;20476;-81
2021/12/06 06:01:11;;;;;;;;;;;2.80;99.90;;;;;;5033673;28;20382;-81
2021/12/06 06:03:38;;;;;;;;;;;2.80;99.90;;;;;;5052343;28;19940;-82
2021/12/06 06:06:05;;;;;;;;;;;2.80;99.90;;;;;;5048741;28;19932;-81
2021/12/06 06:08:34;;;;;;;;;;;2.80;99.90;;;;;;5033240;28;19972;-81
2021/12/06 06:11:01;;;;;;;;;;;2.80;99.90;;;;;;5037509;28;20027;-82
2021/12/06 06:13:28;;;;;;;;;;;2.80;99.90;;;;;;5049265;28;19940;-81
2021/12/06 06:15:56;;;;;;;;;;;2.80;99.90;;;;;;5051215;28;19994;-81
2021/12/06 06:18:22;;;;;;;;;;;2.80;99.90;;;;;;5035616;28;19925;-81
2021/12/06 06:20:50;;;;;;;;;;;2.80;99.90;;;;;;5050005;28;19929;-81
2021/12/06 06:23:17;;;;;;;;;;;2.80;99.90;;;;;;5050907;28;19936;-81
2021/12/06 06:25:51;;;;;;;;;;;2.80;99.90;;;;;;5050924;28;19925;-82
2021/12/06 06:28:18;;;;;;;;;;;2.80;99.90;;;;;;5033660;28;20474;-81
2021/12/06 06:30:46;;;;;;;;;;;2.80;99.90;;;;;;5052657;28;19928;-81
2021/12/06 06:33:13;;;;;;;;;;;2.80;99.90;;;;;;5048228;28;19932;-82
2021/12/06 06:35:40;;;;;;;;;;;2.80;99.90;;;;;;5035372;28;19929;-81
2021/12/06 06:38:08;;;;;;;;;;;2.80;99.90;;;;;;5051432;28;19944;-81
2021/12/06 06:40:35;;;;;;;;;;;2.80;99.90;;;;;;5050075;28;19924;-81
2021/12/06 06:57:29;;;;;;;;;;;2.80;99.90;;;;;;5517687;22;19948;-81
2021/12/06 07:00:00;;;;;;;;;;;2.80;99.90;;;;;;5047621;28;19928;-81
2021/12/06 07:02:27;;;;;;;;;;;2.80;99.90;;;;;;5051880;28;19979;-80
2021/12/06 07:24:14;;;;;;;;;;;2.80;99.90;;;;;;4984748;28;19972;-81
2021/12/06 07:26:44;;;;;;;;;;;2.70;99.90;;;;;;4990609;28;19925;-81
2021/12/06 07:29:14;;;;;;;;;;;2.80;99.90;;;;;;4984654;28;19926;-81
2021/12/06 07:31:41;;;;;;;;;;;2.80;99.90;;;;;;5003477;28;19926;-81
2021/12/06 07:37:12;;;;;;;;;;;2.80;99.90;;;;;;5030378;28;19925;-81
2021/12/06 07:39:41;;;;;;;;;;;2.80;99.90;;;;;;5031835;28;20395;-81
2021/12/06 07:42:12;;;;;;;;;;;2.70;99.90;;;;;;5033713;28;19933;-81
2021/12/06 07:44:40;;;;;;;;;;;2.70;99.90;;;;;;5031829;28;19936;-81
2021/12/06 07:47:07;;;;;;;;;;;2.80;99.90;;;;;;5031641;28;19963;-81
2021/12/06 07:49:37;;;;;;;;;;;2.70;99.90;;;;;;5030360;28;20012;-81
2021/12/06 07:52:04;;;;;;;;;;;2.70;99.90;;;;;;5032437;28;19963;-81
2021/12/06 07:54:34;;;;;;;;;;;2.80;99.90;;;;;;5029897;28;20020;-81
2021/12/06 07:57:04;;;;;;;;;;;2.80;99.90;;;;;;5030120;28;19951;-81
2021/12/06 07:59:33;;;;;;;;;;;2.80;99.90;;;;;;5030560;28;19963;-80
2021/12/06 08:02:00;;;;;;;;;;;2.70;99.90;;;;;;5027381;28;19979;-81
2021/12/06 08:04:30;;;;;;;;;;;2.70;99.90;;;;;;5025579;28;20012;-82
2021/12/06 08:06:57;;;;;;;;;;;2.70;99.90;;;;;;5027270;28;20333;-81
2021/12/06 08:09:24;;;;;;;;;;;2.70;99.90;;;;;;5027026;28;20033;-81
2021/12/06 08:11:52;;;;;;;;;;;2.70;99.90;;;;;;5030237;28;20379;-81
2021/12/06 08:14:20;;;;;;;;;;;2.70;99.90;;;;;;5026553;28;19925;-80
2021/12/06 08:16:47;;;;;;;;;;;2.80;99.90;;;;;;5030858;28;19933;-81
2021/12/06 08:19:15;;;;;;;;;;;2.70;99.90;;;;;;5025623;28;20296;-81
2021/12/06 08:21:44;;;;;;;;;;;2.70;99.90;;;;;;5030233;28;19934;-81
2021/12/06 08:24:11;;;;;;;;;;;2.70;99.90;;;;;;5028537;28;19932;-81
2021/12/06 08:26:41;;;;;;;;;;;2.70;99.90;;;;;;5029817;28;20383;-81
2021/12/06 08:29:16;;;;;;;;;;;2.70;99.90;;;;;;5029641;28;20387;-81
2021/12/06 08:31:46;;;;;;;;;;;2.70;99.90;;;;;;5030039;28;20039;-81
2021/12/06 08:34:23;;;;;;;;;;;2.80;99.90;;;;;;5028698;28;19926;-82
2021/12/06 08:36:50;;;;;;;;;;;2.70;99.90;;;;;;5027226;28;19929;-81
2021/12/06 08:39:17;;;;;;;;;;;2.70;99.90;;;;;;5030394;28;20291;-81
2021/12/06 08:41:47;;;;;;;;;;;2.70;99.90;;;;;;5027956;28;19925;-81
2021/12/06 08:44:15;;;;;;;;;;;2.70;99.90;;;;;;5026052;28;20012;-81
2021/12/06 08:46:42;;;;;;;;;;;2.70;99.90;;;;;;5030281;28;19935;-80
2021/12/06 08:49:11;;;;;;;;;;;2.70;99.90;;;;;;5040900;22;20035;-91
2021/12/06 08:51:40;;;;;;;;;;;2.70;99.90;;;;;;5042810;28;19925;-89
2021/12/06 08:54:08;;;;;;;;;;;2.70;99.90;;;;;;5033219;28;19926;-90
2021/12/06 08:56:36;;;;;;;;;;;2.70;99.90;;;;;;5031195;28;19925;-91
2021/12/06 08:59:04;;;;;;;;;;;2.70;99.90;;;;;;5023398;28;19952;-91
2021/12/06 09:01:31;;;;;;;;;;;2.70;99.90;;;;;;5026865;28;19914;-91
2021/12/06 09:03:59;;;;;;;;;;;2.70;99.90;;;;;;5026706;28;19953;-88
2021/12/06 09:06:28;;;;;;;;;;;2.70;99.90;;;;;;5017201;28;19926;-90
2021/12/06 09:08:55;;;;;;;;;;;2.70;99.90;;;;;;5030932;28;19929;-90
2021/12/06 09:11:23;;;;;;;;;;;2.70;99.90;;;;;;5026945;28;19943;-89
2021/12/06 09:13:50;;;;;;;;;;;2.70;99.90;;;;;;5018847;28;19934;-91
2021/12/06 09:16:17;;;;;;;;;;;2.70;99.90;;;;;;5027957;28;19960;-88
2021/12/06 09:18:45;;;;;;;;;;;2.70;99.90;;;;;;5025721;28;19934;-90
2021/12/06 09:21:14;;;;;;;;;;;2.70;99.90;;;;;;5028642;28;19913;-90
2021/12/06 09:23:43;;;;;;;;;;;2.60;99.90;;;;;;5018325;28;19914;-89
2021/12/06 09:26:12;;;;;;;;;;;2.70;99.90;;;;;;5023677;28;20405;-89
2021/12/06 09:28:40;;;;;;;;;;;2.70;99.90;;;;;;5014405;28;19926;-88
2021/12/06 09:31:08;;;;;;;;;;;2.70;99.90;;;;;;5018881;28;19960;-90
2021/12/06 09:33:36;;;;;;;;;;;2.70;99.90;;;;;;5032208;28;19910;-89
2021/12/06 09:36:03;;;;;;;;;;;2.70;99.90;;;;;;5017490;28;19965;-91
2021/12/06 09:38:36;;;;;;;;;;;2.70;99.90;;;;;;5032877;28;19989;-89
2021/12/06 09:41:07;;;;;;;;;;;2.70;99.90;;;;;;5015996;28;19985;-89
2021/12/06 09:43:38;;;;;;;;;;;2.60;99.90;;;;;;5023444;28;19929;-90
2021/12/06 09:46:06;;;;;;;;;;;2.70;99.90;;;;;;5026487;28;19961;-89
2021/12/06 09:48:33;;;;;;;;;;;2.60;99.90;;;;;;5036359;28;19926;-90
2021/12/06 09:51:02;;;;;;;;;;;2.70;99.90;;;;;;5025398;28;19941;-91
2021/12/06 09:53:30;;;;;;;;;;;2.60;99.90;;;;;;5023033;28;19997;-89
2021/12/06 09:56:00;;;;;;;;;;;2.60;99.90;;;;;;5026934;28;19952;-91
2021/12/06 09:58:30;;;;;;;;;;;2.60;99.90;;;;;;5013589;28;19925;-88
2021/12/06 10:00:59;;;;;;;;;;;2.60;99.90;;;;;;5032321;28;19926;-90
2021/12/06 10:03:29;;;;;;;;;;;2.70;99.90;;;;;;5022020;28;19945;-89
2021/12/06 10:06:02;;;;;;;;;;;2.70;99.90;;;;;;5017731;28;19980;-88
2021/12/06 10:08:29;;;;;;;;;;;2.70;99.90;;;;;;5034553;28;19933;-90
2021/12/06 10:10:56;;;;;;;;;;;2.70;99.90;;;;;;5015004;28;19932;-92
2021/12/06 10:13:24;;;;;;;;;;;2.80;99.90;;;;;;5027118;28;19925;-89
2021/12/06 10:15:52;;;;;;;;;;;2.70;99.90;;;;;;5027402;28;19932;-88
2021/12/06 10:18:20;;;;;;;;;;;2.70;99.90;;;;;;5022281;28;19926;-90
2021/12/06 10:20:48;;;;;;;;;;;2.70;99.90;;;;;;5031423;28;19925;-87
2021/12/06 10:23:16;;;;;;;;;;;2.70;99.90;;;;;;5037456;28;19961;-89
2021/12/06 10:25:44;;;;;;;;;;;2.80;99.90;;;;;;5031697;28;19925;-88
2021/12/06 10:28:11;;;;;;;;;;;2.80;99.90;;;;;;5029467;28;20301;-91
2021/12/06 10:30:41;;;;;;;;;;;2.80;99.90;;;;;;5026456;28;19929;-87
2021/12/06 10:33:11;;;;;;;;;;;2.80;99.90;;;;;;5023638;28;19925;-90
2021/12/06 10:35:40;;;;;;;;;;;2.80;99.90;;;;;;5014090;28;19934;-89
2021/12/06 10:38:07;;;;;;;;;;;2.80;99.90;;;;;;5032699;28;19949;-92
2021/12/06 10:40:37;;;;;;;;;;;2.80;99.90;;;;;;5021187;28;19968;-89
2021/12/06 10:43:07;;;;;;;;;;;2.90;99.90;;;;;;5036153;28;19957;-93
2021/12/06 10:45:36;;;;;;;;;;;2.90;99.90;;;;;;5033346;28;19945;-89
2021/12/06 10:48:17;;;;;;;;;;;2.90;99.90;;;;;;5028877;28;20116;-90
2021/12/06 10:50:46;;;;;;;;;;;2.90;99.90;;;;;;5024253;28;19933;-89
2021/12/06 10:53:13;;;;;;;;;;;2.90;99.90;;;;;;5025722;28;19937;-89
2021/12/06 10:55:42;;;;;;;;;;;2.90;99.90;;;;;;5019528;28;19953;-91
2021/12/06 10:58:12;;;;;;;;;;;2.90;99.90;;;;;;5027462;28;19953;-89
2021/12/06 11:00:41;;;;;;;;;;;2.90;99.90;;;;;;5024858;28;19917;-91
2021/12/06 11:03:20;;;;;;;;;;;2.90;99.90;;;;;;5028794;28;19914;-91
2021/12/06 11:05:50;;;;;;;;;;;2.90;99.90;;;;;;5025062;28;19933;-91
2021/12/06 11:08:17;;;;;;;;;;;3.00;99.90;;;;;;5024310;28;19930;-92
2021/12/06 11:10:46;;;;;;;;;;;2.90;99.90;;;;;;5023987;28;19933;-92
2021/12/06 11:13:20;;;;;;;;;;;3.00;99.90;;;;;;5029537;28;19929;-92
2021/12/06 11:16:08;;;;;;;;;;;3.00;99.90;;;;;;5013856;28;20013;-91
2021/12/06 11:18:38;;;;;;;;;;;3.00;99.90;;;;;;5012647;28;19952;-90
2021/12/06 11:21:13;;;;;;;;;;;3.00;99.90;;;;;;5038829;28;19929;-92
2021/12/06 11:23:55;;;;;;;;;;;3.00;99.90;;;;;;5025763;28;19932;-91
2021/12/06 11:26:22;;;;;;;;;;;3.00;99.90;;;;;;5036685;28;20116;-91
2021/12/06 11:28:49;;;;;;;;;;;3.00;99.90;;;;;;5030900;28;20508;-90
2021/12/06 11:31:17;;;;;;;;;;;3.00;99.90;;;;;;5024536;28;19921;-90
2021/12/06 11:33:57;;;;;;;;;;;3.00;99.90;;;;;;5020840;28;19949;-93
2021/12/06 11:36:25;;;;;;;;;;;3.00;99.90;;;;;;5043470;28;19936;-91
2021/12/06 11:38:57;;;;;;;;;;;3.10;99.90;;;;;;5030716;28;19914;-92
2021/12/06 11:41:25;;;;;;;;;;;3.00;99.90;;;;;;5025477;28;19987;-88
2021/12/06 11:43:52;;;;;;;;;;;3.00;99.90;;;;;;5013834;28;19925;-90
2021/12/06 11:46:27;;;;;;;;;;;3.00;99.90;;;;;;5024856;28;19925;-90
2021/12/06 11:48:55;;;;;;;;;;;3.10;99.90;;;;;;5021359;28;19936;-90
2021/12/06 11:51:24;;;;;;;;;;;3.00;99.90;;;;;;5034417;28;19937;-91
2021/12/06 11:53:52;;;;;;;;;;;3.00;99.90;;;;;;5022855;28;19957;-91
2021/12/06 11:56:20;;;;;;;;;;;3.10;99.90;;;;;;5027926;28;19930;-89
2021/12/06 11:58:48;;;;;;;;;;;3.00;99.90;;;;;;5015871;28;19941;-91
2021/12/06 12:01:18;;;;;;;;;;;3.00;99.90;;;;;;5018687;28;19926;-89
2021/12/06 12:03:47;;;;;;;;;;;3.10;99.90;;;;;;5021922;28;19957;-88
2021/12/06 12:06:22;;;;;;;;;;;3.10;99.90;;;;;;5034756;28;19925;-92
2021/12/06 12:09:01;;;;;;;;;;;3.10;99.90;;;;;;5023925;28;20414;-89
2021/12/06 12:11:28;;;;;;;;;;;3.10;99.90;;;;;;5028941;28;19925;-91
2021/12/06 12:13:57;;;;;;;;;;;3.10;99.90;;;;;;5030307;28;19933;-91
2021/12/06 12:16:25;;;;;;;;;;;3.10;99.90;;;;;;5017639;28;19972;-89
2021/12/06 12:18:52;;;;;;;;;;;3.10;99.90;;;;;;5023110;28;20223;-88
2021/12/06 12:21:19;;;;;;;;;;;3.10;99.90;;;;;;5032065;28;19925;-88
2021/12/06 12:23:48;;;;;;;;;;;3.10;99.90;;;;;;5016961;28;19992;-92
2021/12/06 12:26:19;;;;;;;;;;;3.10;99.90;;;;;;5023966;28;19926;-91
2021/12/06 12:28:52;;;;;;;;;;;3.10;99.90;;;;;;5020438;28;19921;-90
2021/12/06 12:31:20;;;;;;;;;;;3.10;99.90;;;;;;5037771;28;19926;-88
2021/12/06 12:33:48;;;;;;;;;;;3.10;99.90;;;;;;5019372;28;19938;-89
2021/12/06 12:36:17;;;;;;;;;;;3.10;99.90;;;;;;5019006;28;19925;-92
2021/12/06 12:38:46;;;;;;;;;;;3.20;99.90;;;;;;5015417;28;20016;-91
2021/12/06 12:41:15;;;;;;;;;;;3.10;99.90;;;;;;5030635;28;19972;-88
2021/12/06 12:43:44;;;;;;;;;;;3.10;99.90;;;;;;5031105;28;19925;-88
2021/12/06 12:46:13;;;;;;;;;;;3.10;99.90;;;;;;5032824;28;19932;-89
2021/12/06 12:48:48;;;;;;;;;;;3.20;99.90;;;;;;5023882;28;19968;-89
2021/12/06 12:51:16;;;;;;;;;;;3.20;99.90;;;;;;5014021;28;19936;-88
2021/12/06 12:53:45;;;;;;;;;;;3.20;99.90;;;;;;5017922;28;19949;-91
2021/12/06 12:56:22;;;;;;;;;;;3.20;99.90;;;;;;5029981;28;20519;-90
2021/12/06 12:58:50;;;;;;;;;;;3.20;99.90;;;;;;5037488;28;19936;-88
2021/12/06 13:01:17;;;;;;;;;;;3.20;99.90;;;;;;5031198;28;19936;-93
2021/12/06 13:03:50;;;;;;;;;;;3.20;99.90;;;;;;5018744;28;20316;-89
2021/12/06 13:06:22;;;;;;;;;;;3.20;99.90;;;;;;5010207;28;19952;-88
2021/12/06 13:08:50;;;;;;;;;;;3.20;99.90;;;;;;5034454;28;19933;-91
2021/12/06 13:11:18;;;;;;;;;;;3.20;99.90;;;;;;5007258;28;19940;-89
2021/12/06 13:13:49;;;;;;;;;;;3.20;99.90;;;;;;5012955;28;19968;-91
2021/12/06 13:16:29;;;;;;;;;;;3.20;99.90;;;;;;5030385;28;20012;-90
2021/12/06 13:22:05;;;;;;;;;;;3.20;99.90;;;;;;5006939;28;19930;-90
2021/12/06 13:24:35;;;;;;;;;;;3.20;99.90;;;;;;5039824;28;20000;-91
2021/12/06 13:27:04;;;;;;;;;;;3.20;99.90;;;;;;5024233;28;20289;-89
2021/12/06 13:29:43;;;;;;;;;;;3.20;99.90;;;;;;5013556;28;19948;-90
2021/12/06 13:32:29;;;;;;;;;;;3.20;99.90;;;;;;5007181;28;20422;-90
2021/12/06 13:34:57;;;;;;;;;;;3.20;99.90;;;;;;5008305;28;19920;-88
2021/12/06 13:37:26;;;;;;;;;;;3.20;99.90;;;;;;5010307;28;19941;-88
2021/12/06 13:39:53;;;;;;;;;;;3.20;99.90;;;;;;5021619;28;19926;-89
2021/12/06 13:42:35;;;;;;;;;;;3.20;99.90;;;;;;5010772;28;19925;-88
2021/12/06 13:45:06;;;;;;;;;;;3.20;99.90;;;;;;5020747;28;19984;-93
2021/12/06 13:47:33;;;;;;;;;;;3.20;99.90;;;;;;5019956;28;19940;-92
2021/12/06 13:50:02;;;;;;;;;;;3.20;99.90;;;;;;5020352;28;20566;-88
2021/12/06 13:52:33;;;;;;;;;;;3.20;99.90;;;;;;5019266;28;19932;-90
2021/12/06 13:55:01;;;;;;;;;;;3.20;99.90;;;;;;5013301;28;19925;-89
2021/12/06 13:57:30;;;;;;;;;;;3.20;99.90;;;;;;5021311;28;19930;-90
2021/12/06 13:59:59;;;;;;;;;;;3.20;99.90;;;;;;5026555;28;19940;-89
2021/12/06 14:02:33;;;;;;;;;;;3.20;99.90;;;;;;5023043;28;19934;-90
2021/12/06 14:05:01;;;;;;;;;;;3.20;99.90;;;;;;5034886;28;19932;-89
2021/12/06 14:07:29;;;;;;;;;;;3.20;99.90;;;;;;5038094;28;19925;-92
2021/12/06 14:09:57;;;;;;;;;;;3.20;99.90;;;;;;5032741;28;19934;-91
2021/12/06 14:12:27;;;;;;;;;;;3.20;99.90;;;;;;5034249;28;19984;-89
2021/12/06 14:15:01;;;;;;;;;;;3.20;99.90;;;;;;5017322;28;19930;-89
2021/12/06 14:17:30;;;;;;;;;;;3.20;99.90;;;;;;5039360;28;19930;-91
2021/12/06 14:19:59;;;;;;;;;;;3.20;99.90;;;;;;5015471;28;19997;-88
2021/12/06 14:22:27;;;;;;;;;;;3.20;99.90;;;;;;5019690;28;19963;-92
2021/12/06 14:24:55;;;;;;;;;;;3.20;99.90;;;;;;5019080;28;19936;-92
2021/12/06 14:27:26;;;;;;;;;;;3.20;99.90;;;;;;5027124;28;19957;-90
2021/12/06 14:29:54;;;;;;;;;;;3.20;99.90;;;;;;5022745;28;20016;-89
2021/12/06 14:32:21;;;;;;;;;;;3.20;99.90;;;;;;5017629;28;19932;-89
2021/12/06 14:34:50;;;;;;;;;;;3.20;99.90;;;;;;5026820;28;20407;-90
2021/12/06 14:37:19;;;;;;;;;;;3.20;99.90;;;;;;5019801;28;19934;-89
2021/12/06 14:39:48;;;;;;;;;;;3.20;99.90;;;;;;5019715;28;19925;-89
2021/12/06 14:42:17;;;;;;;;;;;3.20;99.90;;;;;;5039223;28;19926;-90
2021/12/06 14:44:46;;;;;;;;;;;3.20;99.90;;;;;;5016142;28;20001;-89
2021/12/06 14:47:15;;;;;;;;;;;3.20;99.90;;;;;;5012858;28;20096;-90
2021/12/06 14:49:44;;;;;;;;;;;3.20;99.90;;;;;;5040532;28;19936;-92
2021/12/06 14:52:17;;;;;;;;;;;3.20;99.90;;;;;;5035339;22;20012;-78
2021/12/06 14:55:07;;;;;;;;;;;3.20;99.90;;;;;;5010909;28;19933;-75
2021/12/06 14:57:35;;;;;;;;;;;3.20;99.90;;;;;;5005527;28;19947;-76
2021/12/06 15:00:06;;;;;;;;;;;3.20;99.90;;;;;;5006062;28;19934;-76
2021/12/06 15:02:34;;;;;;;;;;;3.20;99.90;;;;;;5014423;28;20024;-78
2021/12/06 15:05:03;;;;;;;;;;;3.20;99.90;;;;;;5002447;28;20386;-77
2021/12/06 15:07:32;;;;;;;;;;;3.20;99.90;;;;;;5009482;28;20033;-75
2021/12/06 15:09:59;;;;;;;;;;;3.10;99.90;;;;;;5006113;28;19995;-76
2021/12/06 15:12:26;;;;;;;;;;;3.20;99.90;;;;;;5011872;28;19934;-75
2021/12/06 15:14:54;;;;;;;;;;;3.10;99.90;;;;;;5024133;28;19929;-76
2021/12/06 15:17:21;;;;;;;;;;;3.10;99.90;;;;;;5025736;28;19979;-75
2021/12/06 15:19:49;;;;;;;;;;;3.10;99.90;;;;;;5003024;28;19933;-77
2021/12/06 15:22:16;;;;;;;;;;;3.10;99.90;;;;;;5008023;28;20118;-76
2021/12/06 15:24:45;;;;;;;;;;;3.10;99.90;;;;;;5007970;28;19956;-76
2021/12/06 15:27:13;;;;;;;;;;;3.10;99.90;;;;;;5006413;28;19969;-76
2021/12/06 15:29:43;;;;;;;;;;;3.10;99.90;;;;;;5012202;28;20016;-77
2021/12/06 15:32:12;;;;;;;;;;;3.10;99.90;;;;;;5018384;28;19956;-76
2021/12/06 15:34:41;;;;;;;;;;;3.10;99.90;;;;;;5017460;28;20454;-76
2021/12/06 15:37:09;;;;;;;;;;;3.10;99.90;;;;;;5003720;28;19925;-77